Time;durP1;ratioP1;P1;durP2;ratioP2;P2;SDS_P1;SDS_P2;PMS_P1;PMS_P2;Temp;Humidity;BMP_temperature;BMP_pressure;BME280_temperature;BME280_humidity;BME280_pressure;Samples;Min_cycle;Max_cycle;Signal;HPM_P1;HPM_P2
2021/07/10 00:00:47;;;;;;;16.00;9.50;;;;;;;;;;5046312;28;20086;-76
2021/07/10 00:03:13;;;;;;;10.52;9.27;;;;;;;;;;5047565;28;20021;-76
2021/07/10 00:05:39;;;;;;;11.05;8.70;;;;;;;;;;5042380;28;20085;-77
2021/07/10 00:08:04;;;;;;;9.95;8.35;;;;;;;;;;5047707;28;20047;-77
2021/07/10 00:10:30;;;;;;;12.07;9.05;;;;;;;;;;5046798;28;20132;-76
2021/07/10 00:12:55;;;;;;;12.10;9.65;;;;;;;;;;5043766;28;20026;-76
2021/07/10 00:15:23;;;;;;;13.05;10.40;;;;;;;;;;5047881;28;20029;-76
2021/07/10 00:17:50;;;;;;;13.15;10.10;;;;;;;;;;5046823;28;20028;-76
2021/07/10 00:20:16;;;;;;;16.05;10.93;;;;;;;;;;5048053;28;20021;-76
2021/07/10 00:22:42;;;;;;;15.60;11.07;;;;;;;;;;5044416;28;20099;-76
2021/07/10 00:25:19;;;;;;;15.98;11.77;;;;;;;;;;5045350;28;20035;-77
2021/07/10 00:27:46;;;;;;;13.75;10.95;;;;;;;;;;5047740;28;20029;-76
2021/07/10 00:30:12;;;;;;;17.73;12.93;;;;;;;;;;5050763;28;20043;-76
2021/07/10 00:32:37;;;;;;;13.98;10.38;;;;;;;;;;5046967;28;20082;-76
2021/07/10 00:35:07;;;;;;;16.67;12.43;;;;;;;;;;5049363;28;20033;-76
2021/07/10 00:37:33;;;;;;;22.33;12.07;;;;;;;;;;5044500;28;20388;-76
2021/07/10 00:39:59;;;;;;;15.43;11.80;;;;;;;;;;5042936;28;20016;-77
2021/07/10 00:42:24;;;;;;;14.93;11.05;;;;;;;;;;5050012;28;20032;-76
2021/07/10 00:44:50;;;;;;;18.67;13.35;;;;;;;;;;5050603;28;20516;-77
2021/07/10 00:47:16;;;;;;;17.88;13.85;;;;;;;;;;5043920;28;20040;-76
2021/07/10 00:49:42;;;;;;;15.60;12.30;;;;;;;;;;5047204;28;20029;-77
2021/07/10 00:52:07;;;;;;;13.95;11.27;;;;;;;;;;5044982;28;20392;-76
2021/07/10 00:54:33;;;;;;;15.50;10.80;;;;;;;;;;5039647;28;20037;-76
2021/07/10 00:57:01;;;;;;;13.60;10.55;;;;;;;;;;5047054;28;20115;-77
2021/07/10 00:59:32;;;;;;;12.68;9.60;;;;;;;;;;5047255;28;20050;-76
2021/07/10 01:01:57;;;;;;;13.98;11.13;;;;;;;;;;5047634;28;20040;-76
2021/07/10 01:04:23;;;;;;;15.88;10.98;;;;;;;;;;5047838;28;20033;-77
2021/07/10 01:06:48;;;;;;;13.95;11.20;;;;;;;;;;5040708;28;20508;-76
2021/07/10 01:09:15;;;;;;;15.15;10.98;;;;;;;;;;5047093;28;20166;-76
2021/07/10 01:11:41;;;;;;;14.20;9.95;;;;;;;;;;5044010;28;20511;-77
2021/07/10 01:14:07;;;;;;;11.40;8.60;;;;;;;;;;5043305;28;20037;-76
2021/07/10 01:16:33;;;;;;;11.40;8.82;;;;;;;;;;5045186;28;20016;-77
2021/07/10 01:18:58;;;;;;;11.30;9.07;;;;;;;;;;5049333;28;20029;-76
2021/07/10 01:21:23;;;;;;;9.88;8.75;;;;;;;;;;5049387;28;20079;-77
2021/07/10 01:23:50;;;;;;;13.70;8.45;;;;;;;;;;5045385;28;20076;-76
2021/07/10 01:26:16;;;;;;;13.23;8.38;;;;;;;;;;5040954;28;20025;-77
2021/07/10 01:28:42;;;;;;;10.82;8.18;;;;;;;;;;5048390;28;20045;-76
2021/07/10 01:31:08;;;;;;;12.00;9.25;;;;;;;;;;5047640;28;20031;-76
2021/07/10 01:33:34;;;;;;;13.77;9.20;;;;;;;;;;5056655;28;20033;-76
2021/07/10 01:36:00;;;;;;;11.23;8.90;;;;;;;;;;5059358;28;20025;-76
2021/07/10 01:38:25;;;;;;;14.20;10.43;;;;;;;;;;5042857;28;20094;-76
2021/07/10 01:40:50;;;;;;;13.32;9.02;;;;;;;;;;5045577;28;20025;-76
2021/07/10 01:43:16;;;;;;;13.60;10.32;;;;;;;;;;5041313;28;20120;-76
2021/07/10 01:45:42;;;;;;;12.98;9.70;;;;;;;;;;5048826;28;20082;-77
2021/07/10 01:48:10;;;;;;;15.45;9.93;;;;;;;;;;5045423;28;20031;-76
2021/07/10 01:50:37;;;;;;;11.02;9.15;;;;;;;;;;5042720;28;20030;-77
2021/07/10 01:53:03;;;;;;;13.93;9.77;;;;;;;;;;5048497;28;20446;-77
2021/07/10 01:55:29;;;;;;;12.27;9.27;;;;;;;;;;5046053;28;20038;-77
2021/07/10 01:57:55;;;;;;;11.40;9.23;;;;;;;;;;5044118;28;20025;-77
2021/07/10 02:00:28;;;;;;;15.50;10.27;;;;;;;;;;5045888;28;20188;-76
2021/07/10 02:02:55;;;;;;;12.63;9.82;;;;;;;;;;5040683;28;20025;-76
2021/07/10 02:05:22;;;;;;;12.65;9.82;;;;;;;;;;5049065;28;20251;-77
2021/07/10 02:07:49;;;;;;;13.05;9.93;;;;;;;;;;5047618;28;20077;-75
2021/07/10 02:10:16;;;;;;;12.52;10.38;;;;;;;;;;5043636;28;20028;-76
2021/07/10 02:12:43;;;;;;;12.25;10.00;;;;;;;;;;5044974;28;20072;-76
2021/07/10 02:15:10;;;;;;;15.70;10.18;;;;;;;;;;5043685;28;20040;-75
2021/07/10 02:17:36;;;;;;;12.23;9.68;;;;;;;;;;5049581;28;20035;-76
2021/07/10 02:20:05;;;;;;;14.23;10.60;;;;;;;;;;5045534;28;20108;-75
2021/07/10 02:22:30;;;;;;;16.67;10.32;;;;;;;;;;5044659;28;20507;-75
2021/07/10 02:24:56;;;;;;;14.30;10.05;;;;;;;;;;5045011;28;20033;-76
2021/07/10 02:27:21;;;;;;;11.52;9.27;;;;;;;;;;5047080;28;20118;-76
2021/07/10 02:29:47;;;;;;;13.18;10.20;;;;;;;;;;5047685;28;20031;-76
2021/07/10 02:32:12;;;;;;;13.88;10.02;;;;;;;;;;5045783;28;20043;-76
2021/07/10 02:34:38;;;;;;;15.65;10.70;;;;;;;;;;5046869;28;20032;-76
2021/07/10 02:37:03;;;;;;;12.18;9.57;;;;;;;;;;5044960;28;20041;-76
2021/07/10 02:39:35;;;;;;;21.38;9.93;;;;;;;;;;5045157;28;20119;-76
2021/07/10 02:42:00;;;;;;;13.93;11.30;;;;;;;;;;5046231;28;20083;-76
2021/07/10 02:44:26;;;;;;;12.80;9.63;;;;;;;;;;5046252;28;20025;-75
2021/07/10 02:46:55;;;;;;;13.45;9.90;;;;;;;;;;5045312;28;20103;-76
2021/07/10 02:49:21;;;;;;;13.50;9.80;;;;;;;;;;5045204;28;20413;-75
2021/07/10 02:51:46;;;;;;;12.50;9.68;;;;;;;;;;5042002;28;20116;-75
2021/07/10 02:54:12;;;;;;;13.75;9.57;;;;;;;;;;5049451;28;20104;-75
2021/07/10 02:56:37;;;;;;;13.50;10.63;;;;;;;;;;5045506;28;20033;-75
2021/07/10 02:59:03;;;;;;;13.77;9.70;;;;;;;;;;5043636;28;20115;-74
2021/07/10 03:01:28;;;;;;;13.55;10.18;;;;;;;;;;5046678;28;20021;-75
2021/07/10 03:03:54;;;;;;;14.30;9.60;;;;;;;;;;5039410;28;20040;-76
2021/07/10 03:06:19;;;;;;;12.52;10.00;;;;;;;;;;5041287;28;20067;-76
2021/07/10 03:08:45;;;;;;;14.20;10.30;;;;;;;;;;5044900;28;20599;-76
2021/07/10 03:11:12;;;;;;;16.80;10.40;;;;;;;;;;5044505;28;20393;-76
2021/07/10 03:13:38;;;;;;;17.00;10.43;;;;;;;;;;5046087;28;20036;-77
2021/07/10 03:16:04;;;;;;;14.13;9.63;;;;;;;;;;5037147;28;20185;-76
2021/07/10 03:18:30;;;;;;;13.65;10.10;;;;;;;;;;5041270;28;20120;-76
2021/07/10 03:20:55;;;;;;;17.27;9.90;;;;;;;;;;5045020;28;20055;-77
2021/07/10 03:23:21;;;;;;;15.32;10.32;;;;;;;;;;5048149;28;20035;-76
2021/07/10 03:25:47;;;;;;;12.63;9.70;;;;;;;;;;5046111;28;20037;-76
2021/07/10 03:28:13;;;;;;;13.02;9.98;;;;;;;;;;5046924;28;20035;-76
2021/07/10 03:30:39;;;;;;;10.55;9.45;;;;;;;;;;5045193;28;20029;-76
2021/07/10 03:33:04;;;;;;;13.27;9.82;;;;;;;;;;5044643;28;20029;-76
2021/07/10 03:35:30;;;;;;;15.13;9.25;;;;;;;;;;5041419;28;20250;-76
2021/07/10 03:37:57;;;;;;;16.90;10.35;;;;;;;;;;5046415;28;20039;-77
2021/07/10 03:40:25;;;;;;;15.50;9.93;;;;;;;;;;5045826;28;20096;-76
2021/07/10 03:42:50;;;;;;;15.40;9.60;;;;;;;;;;5041116;28;20033;-77
2021/07/10 03:45:16;;;;;;;16.08;10.63;;;;;;;;;;5046001;28;20036;-76
2021/07/10 03:47:42;;;;;;;14.07;9.85;;;;;;;;;;5048329;28;20384;-77
2021/07/10 03:50:10;;;;;;;14.27;10.15;;;;;;;;;;5042192;28;20025;-76
2021/07/10 03:52:36;;;;;;;13.45;9.63;;;;;;;;;;5046642;28;20489;-76
2021/07/10 03:55:04;;;;;;;13.57;10.40;;;;;;;;;;5045123;28;20067;-76
2021/07/10 03:57:30;;;;;;;15.98;9.52;;;;;;;;;;5044642;28;20447;-76
2021/07/10 03:59:55;;;;;;;12.77;9.63;;;;;;;;;;5042058;28;20025;-76
2021/07/10 04:02:21;;;;;;;12.88;9.45;;;;;;;;;;5043965;28;20116;-76
2021/07/10 04:04:46;;;;;;;15.13;10.75;;;;;;;;;;5043537;28;20119;-76
2021/07/10 04:07:12;;;;;;;15.32;10.25;;;;;;;;;;5041996;28;20519;-76
2021/07/10 04:09:37;;;;;;;14.60;10.00;;;;;;;;;;5041871;28;20542;-76
2021/07/10 04:12:03;;;;;;;13.63;10.27;;;;;;;;;;5044465;28;20112;-75
2021/07/10 04:14:31;;;;;;;17.05;11.00;;;;;;;;;;5044274;28;20025;-77
2021/07/10 04:16:56;;;;;;;15.55;11.13;;;;;;;;;;5046534;28;20373;-76
2021/07/10 04:19:22;;;;;;;14.38;11.10;;;;;;;;;;5044043;28;20104;-76
2021/07/10 04:21:47;;;;;;;14.13;11.20;;;;;;;;;;5044355;28;20140;-76
2021/07/10 04:24:13;;;;;;;13.02;10.27;;;;;;;;;;5038919;28;20025;-77
2021/07/10 04:26:38;;;;;;;14.80;10.95;;;;;;;;;;5045268;28;20021;-76
2021/07/10 04:29:03;;;;;;;15.27;10.90;;;;;;;;;;5042896;28;20024;-76
2021/07/10 04:31:29;;;;;;;18.98;10.70;;;;;;;;;;5043116;28;20423;-76
2021/07/10 04:33:55;;;;;;;13.38;10.48;;;;;;;;;;5044334;28;20040;-76
2021/07/10 04:36:20;;;;;;;15.25;10.75;;;;;;;;;;5039276;28;20030;-75
2021/07/10 04:38:45;;;;;;;15.75;10.88;;;;;;;;;;5046478;28;20029;-76
2021/07/10 04:41:11;;;;;;;17.13;12.02;;;;;;;;;;5048389;28;20063;-75
2021/07/10 04:43:36;;;;;;;14.68;11.05;;;;;;;;;;5046451;28;20086;-76
2021/07/10 04:46:03;;;;;;;14.82;11.63;;;;;;;;;;5046454;28;20032;-76
2021/07/10 04:48:28;;;;;;;14.85;10.75;;;;;;;;;;5044764;28;20037;-76
2021/07/10 04:50:54;;;;;;;14.57;10.27;;;;;;;;;;5048125;28;20024;-77
2021/07/10 04:53:20;;;;;;;14.98;10.23;;;;;;;;;;5043925;28;20054;-76
2021/07/10 04:55:45;;;;;;;15.55;10.40;;;;;;;;;;5043502;28;20040;-77
2021/07/10 04:58:10;;;;;;;12.70;10.60;;;;;;;;;;5047383;28;20025;-76
2021/07/10 05:00:36;;;;;;;13.18;10.55;;;;;;;;;;5041721;28;20029;-76
2021/07/10 05:03:02;;;;;;;17.73;11.00;;;;;;;;;;5039892;28;20507;-76
2021/07/10 05:05:28;;;;;;;13.18;10.43;;;;;;;;;;5047490;28;20338;-76
2021/07/10 05:07:53;;;;;;;13.60;11.13;;;;;;;;;;5046547;28;20051;-76
2021/07/10 05:10:19;;;;;;;16.95;11.85;;;;;;;;;;5042090;28;20044;-77
2021/07/10 05:12:44;;;;;;;16.13;12.35;;;;;;;;;;5045958;28;20025;-76
2021/07/10 05:15:11;;;;;;;17.38;11.00;;;;;;;;;;5048199;28;20035;-77
2021/07/10 05:17:37;;;;;;;17.63;10.98;;;;;;;;;;5048740;28;20437;-76
2021/07/10 05:20:04;;;;;;;15.68;11.15;;;;;;;;;;5051007;28;20060;-77
2021/07/10 05:22:30;;;;;;;15.52;11.32;;;;;;;;;;5044423;28;20134;-76
2021/07/10 05:24:55;;;;;;;17.23;11.02;;;;;;;;;;5041842;28;20481;-76
2021/07/10 05:27:21;;;;;;;15.98;10.30;;;;;;;;;;5051247;28;20020;-77
2021/07/10 05:29:46;;;;;;;14.98;11.57;;;;;;;;;;5045549;28;20028;-76
2021/07/10 05:32:13;;;;;;;17.20;11.95;;;;;;;;;;5047216;28;20025;-76
2021/07/10 05:34:39;;;;;;;15.38;12.45;;;;;;;;;;5049235;28;20040;-77
2021/07/10 05:37:04;;;;;;;20.23;12.85;;;;;;;;;;5044174;28;20028;-77
2021/07/10 05:39:30;;;;;;;17.75;13.55;;;;;;;;;;5048340;28;20032;-76
2021/07/10 05:41:55;;;;;;;16.50;13.57;;;;;;;;;;5048014;28;20063;-77
2021/07/10 05:44:21;;;;;;;18.05;13.52;;;;;;;;;;5041162;28;20025;-77
2021/07/10 05:46:46;;;;;;;18.05;12.82;;;;;;;;;;5043373;28;20080;-77
2021/07/10 05:49:12;;;;;;;18.70;13.95;;;;;;;;;;5042652;28;20304;-77
2021/07/10 05:51:37;;;;;;;18.17;13.38;;;;;;;;;;5044229;28;20373;-77
2021/07/10 05:54:02;;;;;;;18.23;13.23;;;;;;;;;;5048163;28;20021;-77
2021/07/10 05:56:28;;;;;;;19.33;13.93;;;;;;;;;;5047921;28;20445;-77
2021/07/10 05:58:53;;;;;;;23.02;14.10;;;;;;;;;;5045704;28;20492;-77
2021/07/10 06:01:19;;;;;;;18.42;13.10;;;;;;;;;;5044924;28;20021;-76
2021/07/10 06:03:44;;;;;;;19.90;14.32;;;;;;;;;;5044052;28;20095;-77
2021/07/10 06:06:10;;;;;;;19.83;14.63;;;;;;;;;;5047845;28;20404;-77
2021/07/10 06:08:35;;;;;;;21.02;14.07;;;;;;;;;;5038419;28;20056;-76
2021/07/10 06:11:00;;;;;;;19.83;14.25;;;;;;;;;;5039189;28;20033;-78
2021/07/10 06:13:27;;;;;;;21.55;14.57;;;;;;;;;;5043811;28;20049;-77
2021/07/10 06:15:53;;;;;;;18.60;12.88;;;;;;;;;;5047876;28;20455;-77
2021/07/10 06:18:18;;;;;;;19.02;14.77;;;;;;;;;;5049244;28;20029;-77
2021/07/10 06:20:44;;;;;;;19.48;13.90;;;;;;;;;;5045855;28;20374;-77
2021/07/10 06:23:09;;;;;;;18.30;14.15;;;;;;;;;;5046107;28;20492;-76
2021/07/10 06:25:36;;;;;;;17.10;13.60;;;;;;;;;;5045071;28;20453;-77
2021/07/10 06:28:05;;;;;;;19.17;14.02;;;;;;;;;;5044706;28;21990;-76
2021/07/10 06:30:31;;;;;;;18.83;13.60;;;;;;;;;;5044902;28;20460;-76
2021/07/10 06:32:56;;;;;;;17.88;13.82;;;;;;;;;;5039924;28;20029;-76
2021/07/10 06:35:22;;;;;;;20.33;15.00;;;;;;;;;;5045190;28;20439;-76
2021/07/10 06:37:47;;;;;;;19.05;13.05;;;;;;;;;;5041226;28;20029;-76
2021/07/10 06:40:15;;;;;;;18.70;13.70;;;;;;;;;;5046376;28;20017;-76
2021/07/10 06:42:41;;;;;;;18.40;13.50;;;;;;;;;;5039804;28;20407;-76
2021/07/10 06:45:10;;;;;;;18.58;14.07;;;;;;;;;;5050055;28;20032;-76
2021/07/10 06:47:36;;;;;;;17.73;13.85;;;;;;;;;;5045049;28;20028;-75
2021/07/10 06:50:05;;;;;;;20.50;14.60;;;;;;;;;;5046994;28;20025;-75
2021/07/10 06:52:31;;;;;;;;;;;;;;;;;;5042991;28;20052;-76
2021/07/10 06:54:56;;;;;;;18.52;13.68;;;;;;;;;;5047742;28;20272;-76
2021/07/10 06:57:22;;;;;;;19.95;13.85;;;;;;;;;;5046249;28;20048;-76
2021/07/10 06:59:47;;;;;;;17.13;12.05;;;;;;;;;;5047163;28;20067;-76
2021/07/10 07:02:13;;;;;;;18.50;13.73;;;;;;;;;;5045376;28;20473;-76
2021/07/10 07:04:39;;;;;;;20.40;14.18;;;;;;;;;;5044896;28;20489;-76
2021/07/10 07:07:05;;;;;;;19.88;14.68;;;;;;;;;;5041550;28;20028;-76
2021/07/10 07:09:30;;;;;;;16.55;13.73;;;;;;;;;;5038422;28;20656;-76
2021/07/10 07:11:56;;;;;;;20.02;14.10;;;;;;;;;;5045090;28;20120;-76
2021/07/10 07:14:21;;;;;;;19.25;14.73;;;;;;;;;;5046387;28;20488;-76
2021/07/10 07:16:47;;;;;;;18.20;14.02;;;;;;;;;;5043268;28;20032;-76
2021/07/10 07:19:12;;;;;;;17.35;13.85;;;;;;;;;;5034876;28;20037;-76
2021/07/10 07:21:37;;;;;;;18.95;13.00;;;;;;;;;;5036467;28;20049;-76
2021/07/10 07:24:03;;;;;;;16.20;12.63;;;;;;;;;;5044342;28;20491;-76
2021/07/10 07:26:29;;;;;;;18.90;14.00;;;;;;;;;;5041560;28;20125;-76
2021/07/10 07:28:54;;;;;;;16.88;12.70;;;;;;;;;;5043804;28;20028;-75
2021/07/10 07:31:19;;;;;;;15.93;12.25;;;;;;;;;;5038326;28;20025;-77
2021/07/10 07:33:45;;;;;;;17.88;13.02;;;;;;;;;;5035783;28;20025;-76
2021/07/10 07:36:11;;;;;;;16.15;12.75;;;;;;;;;;5047414;28;20065;-77
2021/07/10 07:38:37;;;;;;;16.70;12.23;;;;;;;;;;5044089;28;20119;-77
2021/07/10 07:41:03;;;;;;;17.40;13.20;;;;;;;;;;5045521;28;20028;-76
2021/07/10 07:43:29;;;;;;;15.93;12.65;;;;;;;;;;5039297;28;20136;-76
2021/07/10 07:45:54;;;;;;;19.05;13.95;;;;;;;;;;5043580;28;20130;-76
2021/07/10 07:48:20;;;;;;;17.17;13.45;;;;;;;;;;5043547;28;20056;-78
2021/07/10 07:50:46;;;;;;;18.38;12.52;;;;;;;;;;5044908;28;20107;-77
2021/07/10 07:53:13;;;;;;;15.98;12.32;;;;;;;;;;5044329;28;20400;-76
2021/07/10 07:55:39;;;;;;;15.50;12.57;;;;;;;;;;5042879;28;20075;-76
2021/07/10 07:58:04;;;;;;;13.77;11.98;;;;;;;;;;5039355;28;20029;-76
2021/07/10 08:00:30;;;;;;;16.42;11.90;;;;;;;;;;5043965;28;20055;-77
2021/07/10 08:02:55;;;;;;;11.68;10.13;;;;;;;;;;5045262;28;20025;-76
2021/07/10 08:05:21;;;;;;;12.30;9.27;;;;;;;;;;5044840;28;20128;-75
2021/07/10 08:07:47;;;;;;;14.48;11.13;;;;;;;;;;5042639;28;20032;-76
2021/07/10 08:10:14;;;;;;;13.35;11.25;;;;;;;;;;5039879;28;20013;-75
2021/07/10 08:12:41;;;;;;;13.15;11.65;;;;;;;;;;5045255;28;20040;-75
2021/07/10 08:15:08;;;;;;;14.75;10.80;;;;;;;;;;5049692;28;20391;-76
2021/07/10 08:17:33;;;;;;;12.18;10.85;;;;;;;;;;5048320;28;20467;-76
2021/07/10 08:19:59;;;;;;;11.65;10.45;;;;;;;;;;5045026;28;20018;-76
2021/07/10 08:22:25;;;;;;;12.75;10.68;;;;;;;;;;5047485;28;20036;-76
2021/07/10 08:24:50;;;;;;;13.38;11.25;;;;;;;;;;5044890;28;20033;-77
2021/07/10 08:27:16;;;;;;;14.02;11.23;;;;;;;;;;5050899;28;20244;-77
2021/07/10 08:29:42;;;;;;;13.07;10.65;;;;;;;;;;5047098;28;20135;-77
2021/07/10 08:32:08;;;;;;;13.75;10.75;;;;;;;;;;5047278;28;20025;-77
2021/07/10 08:34:34;;;;;;;14.05;10.23;;;;;;;;;;5048625;28;20044;-76
2021/07/10 08:37:01;;;;;;;14.25;10.65;;;;;;;;;;5049903;28;20025;-78
2021/07/10 08:39:27;;;;;;;12.38;10.73;;;;;;;;;;5047922;28;20112;-77
2021/07/10 08:41:52;;;;;;;13.35;10.25;;;;;;;;;;5052061;28;20516;-76
2021/07/10 08:44:18;;;;;;;13.50;10.75;;;;;;;;;;5049538;28;20058;-76
2021/07/10 08:46:45;;;;;;;12.55;10.27;;;;;;;;;;5044748;28;20120;-76
2021/07/10 08:49:16;;;;;;;11.43;8.25;;;;;;;;;;5046901;28;20029;-76
2021/07/10 08:51:47;;;;;;;10.52;7.97;;;;;;;;;;5060501;28;20111;-76
2021/07/10 08:54:14;;;;;;;12.15;9.40;;;;;;;;;;5042259;28;20021;-76
2021/07/10 08:56:40;;;;;;;10.57;9.25;;;;;;;;;;5047422;28;20527;-76
2021/07/10 08:59:11;;;;;;;11.68;9.52;;;;;;;;;;5045450;28;20025;-76
2021/07/10 09:01:37;;;;;;;9.95;8.93;;;;;;;;;;5046019;28;20032;-76
2021/07/10 09:04:03;;;;;;;12.40;8.70;;;;;;;;;;5037818;28;20047;-76
2021/07/10 09:06:29;;;;;;;10.07;8.65;;;;;;;;;;5044648;28;20025;-76
2021/07/10 09:08:55;;;;;;;10.40;8.40;;;;;;;;;;5045999;28;20056;-77
2021/07/10 09:11:22;;;;;;;10.60;8.77;;;;;;;;;;5046962;28;20456;-77
2021/07/10 09:13:54;;;;;;;9.40;8.07;;;;;;;;;;5044165;28;20039;-77
2021/07/10 09:16:23;;;;;;;9.50;8.05;;;;;;;;;;5048385;28;20035;-77
2021/07/10 09:18:53;;;;;;;;;;;;;;;;;;5041121;28;20029;-76
2021/07/10 09:21:44;;;;;;;9.10;7.63;;;;;;;;;;5046725;28;23155;-77
2021/07/10 09:24:23;;;;;;;10.88;8.55;;;;;;;;;;5044290;28;20119;-77
2021/07/10 09:26:52;;;;;;;8.52;7.60;;;;;;;;;;5044745;28;20043;-77
2021/07/10 09:29:23;;;;;;;11.52;7.90;;;;;;;;;;5049718;28;20036;-77
2021/07/10 09:32:05;;;;;;;9.63;7.60;;;;;;;;;;5048000;28;20025;-76
2021/07/10 09:34:36;;;;;;;9.23;8.23;;;;;;;;;;5046111;28;20020;-76
2021/07/10 09:37:03;;;;;;;9.52;7.80;;;;;;;;;;5045553;28;20021;-76
2021/07/10 09:39:31;;;;;;;9.00;7.55;;;;;;;;;;5045689;28;20104;-76
2021/07/10 09:41:58;;;;;;;9.70;7.97;;;;;;;;;;5045671;28;20028;-76
2021/07/10 09:44:25;;;;;;;8.40;7.60;;;;;;;;;;5049152;28;20039;-76
2021/07/10 09:46:50;;;;;;;8.88;7.22;;;;;;;;;;5046746;28;20024;-76
2021/07/10 09:49:27;;;;;;;8.77;7.82;;;;;;;;;;5047842;28;20078;-76
2021/07/10 09:52:07;;;;;;;8.77;7.88;;;;;;;;;;5048624;28;20083;-76
2021/07/10 09:54:36;;;;;;;8.35;7.22;;;;;;;;;;5046001;28;20448;-76
2021/07/10 09:57:06;;;;;;;8.82;7.80;;;;;;;;;;5047293;28;20163;-77
2021/07/10 09:59:37;;;;;;;9.70;6.95;;;;;;;;;;5043666;28;20618;-78
2021/07/10 10:02:09;;;;;;;10.35;7.30;;;;;;;;;;5043645;28;20025;-76
2021/07/10 10:04:35;;;;;;;7.72;7.00;;;;;;;;;;5043065;28;20088;-75
2021/07/10 10:07:02;;;;;;;9.15;7.70;;;;;;;;;;5040995;28;20149;-78
2021/07/10 10:09:30;;;;;;;10.82;7.32;;;;;;;;;;5048978;28;20036;-77
2021/07/10 10:12:05;;;;;;;7.50;6.80;;;;;;;;;;5044523;28;20364;-77
2021/07/10 10:14:37;;;;;;;7.88;7.07;;;;;;;;;;5046131;28;20025;-77
2021/07/10 10:17:03;;;;;;;7.35;6.60;;;;;;;;;;5044202;28;20492;-76
2021/07/10 10:19:31;;;;;;;6.78;6.10;;;;;;;;;;5048989;28;20059;-76
2021/07/10 10:21:58;;;;;;;7.60;6.00;;;;;;;;;;5043610;28;20025;-76
2021/07/10 10:24:25;;;;;;;7.70;6.93;;;;;;;;;;5047131;28;20024;-78
2021/07/10 10:26:53;;;;;;;7.32;6.65;;;;;;;;;;5047916;28;20515;-75
2021/07/10 10:29:20;;;;;;;6.78;6.10;;;;;;;;;;5045306;28;20035;-76
2021/07/10 10:31:47;;;;;;;6.63;6.00;;;;;;;;;;5041359;28;20021;-76
2021/07/10 10:34:13;;;;;;;9.75;7.60;;;;;;;;;;5042158;28;20078;-75
2021/07/10 10:36:42;;;;;;;6.20;5.60;;;;;;;;;;5048630;28;20025;-76
2021/07/10 10:39:15;;;;;;;5.53;4.78;;;;;;;;;;5042533;28;20028;-77
2021/07/10 10:41:44;;;;;;;4.60;4.20;;;;;;;;;;5059712;28;20028;-75
2021/07/10 10:44:11;;;;;;;5.68;4.10;;;;;;;;;;5045606;28;20076;-76
2021/07/10 10:46:48;;;;;;;4.28;3.88;;;;;;;;;;5047325;28;20512;-76
2021/07/10 10:49:33;;;;;;;6.15;4.60;;;;;;;;;;5059316;28;20526;-77
2021/07/10 10:52:32;;;;;;;4.05;3.75;;;;;;;;;;5041573;28;20037;-74
2021/07/10 10:55:37;;;;;;;5.10;4.07;;;;;;;;;;5043642;28;20044;-77
2021/07/10 10:58:16;;;;;;;4.95;3.42;;;;;;;;;;5045959;28;20017;-75
2021/07/10 11:00:49;;;;;;;;;;;;;;;;;;5043900;28;20116;-75
2021/07/10 11:03:19;;;;;;;4.18;3.78;;;;;;;;;;5046782;28;19920;-75
2021/07/10 11:05:47;;;;;;;6.80;3.90;;;;;;;;;;5033832;28;20056;-74
2021/07/10 11:08:19;;;;;;;3.80;3.30;;;;;;;;;;5044649;28;20025;-75
2021/07/10 11:10:54;;;;;;;6.88;4.20;;;;;;;;;;5045025;28;20029;-76
2021/07/10 11:13:29;;;;;;;4.78;4.25;;;;;;;;;;5041802;28;20412;-76
2021/07/10 11:16:17;;;;;;;4.35;3.80;;;;;;;;;;5045769;28;20401;-77
2021/07/10 11:18:58;;;;;;;4.28;3.90;;;;;;;;;;5042658;28;20930;-75
2021/07/10 11:21:37;;;;;;;5.25;3.85;;;;;;;;;;5043896;28;20511;-76
2021/07/10 11:26:44;;;;;;;3.90;3.58;;;;;;;;;;5039464;28;20037;-76
2021/07/10 11:29:20;;;;;;;4.38;3.88;;;;;;;;;;5047934;28;20043;-77
2021/07/10 11:31:46;;;;;;;4.60;3.55;;;;;;;;;;5047665;28;20382;-77
2021/07/10 11:34:14;;;;;;;4.00;3.60;;;;;;;;;;5043882;28;20044;-77
2021/07/10 11:36:43;;;;;;;3.88;3.50;;;;;;;;;;5043637;28;20028;-77
2021/07/10 11:39:23;;;;;;;7.40;3.20;;;;;;;;;;5044953;28;20476;-77
2021/07/10 11:41:50;;;;;;;4.10;3.70;;;;;;;;;;5047876;28;20080;-77
2021/07/10 11:44:25;;;;;;;4.28;3.88;;;;;;;;;;5046901;28;20020;-77
2021/07/10 11:46:56;;;;;;;3.70;3.40;;;;;;;;;;5041067;28;20206;-77
2021/07/10 11:49:40;;;;;;;6.55;3.40;;;;;;;;;;5042613;28;20032;-77
2021/07/10 11:52:15;;;;;;;3.95;3.00;;;;;;;;;;5044240;28;20021;-77
2021/07/10 11:54:54;;;;;;;3.90;3.55;;;;;;;;;;5044656;28;20404;-77
2021/07/10 11:57:22;;;;;;;4.22;3.80;;;;;;;;;;5041488;28;20056;-77
2021/07/10 11:59:48;;;;;;;4.80;2.90;;;;;;;;;;5043059;28;20476;-76
2021/07/10 12:02:14;;;;;;;5.85;3.05;;;;;;;;;;5046171;28;20029;-77
2021/07/10 12:04:39;;;;;;;3.40;3.13;;;;;;;;;;5044660;28;20475;-77
2021/07/10 12:07:20;;;;;;;4.40;3.67;;;;;;;;;;5045710;28;20028;-77
2021/07/10 12:09:50;;;;;;;5.13;3.72;;;;;;;;;;5046413;28;20377;-77
2021/07/10 12:12:16;;;;;;;4.18;3.28;;;;;;;;;;5044329;28;20043;-77
2021/07/10 12:14:55;;;;;;;4.10;3.40;;;;;;;;;;5041823;28;20114;-77
2021/07/10 12:17:22;;;;;;;3.90;3.25;;;;;;;;;;5040520;28;20021;-76
2021/07/10 12:19:49;;;;;;;3.60;3.30;;;;;;;;;;5046483;28;20064;-77
2021/07/10 12:22:16;;;;;;;3.42;3.15;;;;;;;;;;5045122;28;20071;-77
2021/07/10 12:24:42;;;;;;;4.13;3.33;;;;;;;;;;5045864;28;20024;-77
2021/07/10 12:27:15;;;;;;;4.05;3.05;;;;;;;;;;5045829;28;20036;-77
2021/07/10 12:29:51;;;;;;;4.20;3.22;;;;;;;;;;5039955;28;20033;-77
2021/07/10 12:32:17;;;;;;;5.38;3.30;;;;;;;;;;5042188;28;20068;-77
2021/07/10 12:34:51;;;;;;;3.75;3.42;;;;;;;;;;5043193;28;20501;-77
2021/07/10 12:37:25;;;;;;;3.58;3.20;;;;;;;;;;5042590;28;20033;-77
2021/07/10 12:39:50;;;;;;;3.80;3.30;;;;;;;;;;5044244;28;20360;-77
2021/07/10 12:42:16;;;;;;;4.70;3.75;;;;;;;;;;5045052;28;20107;-77
2021/07/10 12:44:42;;;;;;;3.20;2.90;;;;;;;;;;5045402;28;20035;-77
2021/07/10 12:47:10;;;;;;;3.47;3.17;;;;;;;;;;5043508;28;20095;-77
2021/07/10 12:49:48;;;;;;;3.67;3.37;;;;;;;;;;5039183;28;20052;-77
2021/07/10 12:52:19;;;;;;;3.40;3.10;;;;;;;;;;5045229;28;20028;-77
2021/07/10 12:54:46;;;;;;;3.58;3.03;;;;;;;;;;5040178;28;20039;-77
2021/07/10 12:57:20;;;;;;;2.80;2.60;;;;;;;;;;5046050;28;20426;-77
2021/07/10 12:59:58;;;;;;;3.88;3.00;;;;;;;;;;5046313;28;20045;-77
2021/07/10 13:02:32;;;;;;;3.00;2.70;;;;;;;;;;5046508;28;20024;-77
2021/07/10 13:05:02;;;;;;;3.17;2.55;;;;;;;;;;5046313;28;20108;-77
2021/07/10 13:07:32;;;;;;;2.85;2.65;;;;;;;;;;5043027;28;20423;-77
2021/07/10 13:09:59;;;;;;;3.97;3.00;;;;;;;;;;5042713;28;20030;-77
2021/07/10 13:12:47;;;;;;;3.35;2.85;;;;;;;;;;5042624;28;20025;-77
2021/07/10 13:15:16;;;;;;;5.13;2.53;;;;;;;;;;5045823;28;20443;-77
2021/07/10 13:17:42;;;;;;;2.95;2.65;;;;;;;;;;5043263;28;20047;-77
2021/07/10 13:20:29;;;;;;;3.03;2.72;;;;;;;;;;5044983;28;20108;-77
2021/07/10 13:22:56;;;;;;;3.40;2.97;;;;;;;;;;5047814;28;20029;-77
2021/07/10 13:25:22;;;;;;;4.07;2.92;;;;;;;;;;5047622;28;20514;-77
2021/07/10 13:27:47;;;;;;;3.70;2.72;;;;;;;;;;5039431;28;20033;-78
2021/07/10 13:30:15;;;;;;;2.85;2.65;;;;;;;;;;5047551;28;20535;-77
2021/07/10 13:32:51;;;;;;;2.80;2.60;;;;;;;;;;5046133;28;20090;-77
2021/07/10 13:35:17;;;;;;;2.92;2.70;;;;;;;;;;5047947;28;20024;-77
2021/07/10 13:37:42;;;;;;;2.85;2.47;;;;;;;;;;5043651;28;20152;-77
2021/07/10 13:40:23;;;;;;;2.85;2.55;;;;;;;;;;5045802;28;20028;-77
2021/07/10 13:42:56;;;;;;;4.18;2.63;;;;;;;;;;5044064;28;20060;-77
2021/07/10 13:45:21;;;;;;;3.08;2.50;;;;;;;;;;5047050;28;20116;-77
2021/07/10 13:47:47;;;;;;;3.05;2.65;;;;;;;;;;5044861;28;20108;-77
2021/07/10 13:50:13;;;;;;;3.42;2.53;;;;;;;;;;5047402;28;20115;-77
2021/07/10 13:52:41;;;;;;;4.30;2.50;;;;;;;;;;5045596;28;20068;-77
2021/07/10 13:55:08;;;;;;;4.22;2.50;;;;;;;;;;5047305;28;20384;-77
2021/07/10 13:57:48;;;;;;;3.15;2.38;;;;;;;;;;5045333;28;20036;-76
2021/07/10 14:00:36;;;;;;;4.03;2.33;;;;;;;;;;5042618;28;20018;-77
2021/07/10 14:03:03;;;;;;;5.53;3.00;;;;;;;;;;5045495;28;20150;-76
2021/07/10 14:05:33;;;;;;;4.43;2.63;;;;;;;;;;5044803;28;20427;-76
2021/07/10 14:08:11;;;;;;;3.33;2.80;;;;;;;;;;5044656;28;20110;-77
2021/07/10 14:10:50;;;;;;;2.90;2.70;;;;;;;;;;5039821;28;20040;-77
2021/07/10 14:13:27;;;;;;;4.63;3.05;;;;;;;;;;5045708;28;20191;-76
2021/07/10 14:15:56;;;;;;;3.63;3.20;;;;;;;;;;5042993;28;20877;-76
2021/07/10 14:18:22;;;;;;;3.40;3.10;;;;;;;;;;5047139;28;20043;-76
2021/07/10 14:20:50;;;;;;;7.43;3.00;;;;;;;;;;5046577;28;20017;-78
2021/07/10 14:23:16;;;;;;;2.78;2.50;;;;;;;;;;5043484;28;20100;-78
2021/07/10 14:25:42;;;;;;;3.92;3.08;;;;;;;;;;5046705;28;20102;-77
2021/07/10 14:28:08;;;;;;;3.30;2.80;;;;;;;;;;5042535;28;20025;-76
2021/07/10 14:30:34;;;;;;;3.40;3.10;;;;;;;;;;5043696;28;20017;-76
2021/07/10 14:33:01;;;;;;;3.05;2.80;;;;;;;;;;5042502;28;20361;-77
2021/07/10 14:35:31;;;;;;;3.17;2.88;;;;;;;;;;5047395;28;20036;-77